createdAt,value
2023-04-21T00:02:54.774Z,14.35
2023-04-21T00:05:43.152Z,13.85
2023-04-21T00:08:29.270Z,15.90
2023-04-21T00:11:15.374Z,15.55
2023-04-21T00:14:01.309Z,12.95
2023-04-21T00:16:47.444Z,12.85
2023-04-21T00:19:33.908Z,12.32
2023-04-21T00:22:19.893Z,13.57
2023-04-21T00:25:06.517Z,13.90
2023-04-21T00:27:52.422Z,12.50
2023-04-21T00:30:38.181Z,19.92
2023-04-21T00:33:24.041Z,13.52
2023-04-21T00:36:10.035Z,12.10
2023-04-21T00:38:55.857Z,10.10
2023-04-21T00:41:41.652Z,14.75
2023-04-21T00:44:27.751Z,11.18
2023-04-21T00:47:13.611Z,12.60
2023-04-21T00:49:59.849Z,11.98
2023-04-21T00:52:47.293Z,11.65
2023-04-21T00:55:33.170Z,11.20
2023-04-21T00:58:19.216Z,13.55
2023-04-21T01:01:05.578Z,15.27
2023-04-21T01:03:51.956Z,12.90
2023-04-21T01:06:38.099Z,13.40
2023-04-21T01:09:24.182Z,14.75
2023-04-21T01:12:11.543Z,10.90
2023-04-21T01:14:57.807Z,12.10
2023-04-21T01:17:43.875Z,15.18
2023-04-21T01:20:31.904Z,14.07
2023-04-21T01:23:18.857Z,12.52
2023-04-21T01:26:04.902Z,10.43
2023-04-21T01:28:57.472Z,13.68
2023-04-21T01:31:44.126Z,10.02
2023-04-21T01:34:30.031Z,13.73
2023-04-21T01:37:18.880Z,10.70
2023-04-21T01:40:07.632Z,11.07
2023-04-21T01:42:53.638Z,9.82
2023-04-21T01:45:39.829Z,10.98
2023-04-21T01:48:25.528Z,13.93
2023-04-21T01:51:11.442Z,9.85
2023-04-21T01:53:57.146Z,13.70
2023-04-21T01:56:42.868Z,11.35
2023-04-21T01:59:28.873Z,14.65
2023-04-21T02:02:15.062Z,13.88
2023-04-21T02:05:00.660Z,11.55
2023-04-21T02:07:46.549Z,11.57
2023-04-21T02:10:33.784Z,12.77
2023-04-21T02:13:19.793Z,14.90
2023-04-21T02:16:13.281Z,12.90
2023-04-21T02:19:00.119Z,12.40
2023-04-21T02:21:46.615Z,11.55
2023-04-21T02:24:32.663Z,11.32
2023-04-21T02:27:18.379Z,11.05
2023-04-21T02:30:04.514Z,17.25
2023-04-21T02:32:50.439Z,11.25
2023-04-21T02:35:36.340Z,13.43
2023-04-21T02:38:21.932Z,11.10
2023-04-21T02:41:07.819Z,14.30
2023-04-21T02:43:53.939Z,12.35
2023-04-21T02:46:42.075Z,14.77
2023-04-21T02:49:27.996Z,10.90
2023-04-21T02:52:16.597Z,14.80
2023-04-21T02:55:03.468Z,12.93
2023-04-21T02:57:49.765Z,12.68
2023-04-21T03:00:36.069Z,41.35
2023-04-21T03:03:22.206Z,32.58
2023-04-21T03:06:08.681Z,21.75
2023-04-21T03:08:54.731Z,19.88
2023-04-21T03:11:40.560Z,13.60
2023-04-21T03:14:26.410Z,12.90
2023-04-21T03:17:12.108Z,13.52
2023-04-21T03:19:57.995Z,13.50
2023-04-21T03:22:43.751Z,13.32
2023-04-21T03:25:29.724Z,14.23
2023-04-21T03:28:17.023Z,11.25
2023-04-21T03:31:03.276Z,17.25
2023-04-21T03:33:49.077Z,13.40
2023-04-21T03:36:35.508Z,17.10
2023-04-21T03:39:22.248Z,13.95
2023-04-21T03:42:09.789Z,15.32
2023-04-21T03:44:55.808Z,12.82
2023-04-21T03:47:41.789Z,11.45
2023-04-21T03:50:27.552Z,12.20
2023-04-21T03:53:13.359Z,20.17
2023-04-21T03:55:59.147Z,22.10
2023-04-21T03:58:44.942Z,13.35
2023-04-21T04:01:31.253Z,14.38
2023-04-21T04:04:17.506Z,19.02
2023-04-21T04:07:03.438Z,19.02
2023-04-21T04:09:49.445Z,15.55
2023-04-21T04:12:35.067Z,16.05
2023-04-21T04:15:21.054Z,18.00
2023-04-21T04:18:07.030Z,16.10
2023-04-21T04:20:52.808Z,19.42
2023-04-21T04:23:38.589Z,13.15
2023-04-21T04:26:25.299Z,18.48
2023-04-21T04:29:11.303Z,17.65
2023-04-21T04:31:58.180Z,13.43
2023-04-21T04:34:43.946Z,18.77
2023-04-21T04:37:29.784Z,23.63
2023-04-21T04:40:15.862Z,25.70
2023-04-21T04:43:36.920Z,24.40
2023-04-21T04:46:24.860Z,32.40
2023-04-21T04:49:10.815Z,38.22
2023-04-21T04:51:56.685Z,37.40
2023-04-21T04:54:42.719Z,26.98
2023-04-21T04:57:28.417Z,26.88
2023-04-21T05:00:14.884Z,28.77
2023-04-21T05:03:00.995Z,23.95
2023-04-21T05:05:47.074Z,25.05
2023-04-21T05:08:33.624Z,19.27
2023-04-21T05:11:19.697Z,23.10
2023-04-21T05:14:05.559Z,22.23
2023-04-21T05:16:51.615Z,57.95
2023-04-21T05:19:40.099Z,59.80
2023-04-21T05:22:26.441Z,34.00
2023-04-21T05:25:15.546Z,21.77
2023-04-21T05:28:01.627Z,26.45
2023-04-21T05:30:47.331Z,19.33
2023-04-21T05:33:33.186Z,24.83
2023-04-21T05:36:20.464Z,18.98
2023-04-21T05:39:06.504Z,22.83
2023-04-21T05:41:52.572Z,41.80
2023-04-21T05:44:38.986Z,23.77
2023-04-21T05:47:25.023Z,22.52
2023-04-21T05:50:11.119Z,19.67
2023-04-21T05:52:57.064Z,15.48
2023-04-21T05:55:42.862Z,18.23
2023-04-21T05:58:28.789Z,17.70
2023-04-21T06:01:15.560Z,33.83
2023-04-21T06:04:01.506Z,28.60
2023-04-21T06:06:47.736Z,29.20
2023-04-21T06:09:33.648Z,21.50
2023-04-21T06:12:19.681Z,20.85
2023-04-21T06:15:06.083Z,33.95
2023-04-21T06:17:55.641Z,59.53
2023-04-21T06:20:42.368Z,70.20
2023-04-21T06:23:28.492Z,43.67
2023-04-21T06:26:14.230Z,45.53
2023-04-21T06:29:00.033Z,34.22
2023-04-21T06:31:46.116Z,32.15
2023-04-21T06:34:31.797Z,35.10
2023-04-21T06:37:17.860Z,59.65
2023-04-21T06:40:04.421Z,42.00
2023-04-21T06:42:50.656Z,21.10
2023-04-21T06:45:36.938Z,21.85
2023-04-21T06:48:22.633Z,25.90
2023-04-21T06:51:08.500Z,40.63
2023-04-21T06:53:54.455Z,33.60
2023-04-21T06:56:41.571Z,33.47
2023-04-21T06:59:27.285Z,33.53
2023-04-21T07:02:13.147Z,35.08
2023-04-21T07:04:59.056Z,28.67
2023-04-21T07:07:45.067Z,22.33
2023-04-21T07:10:32.088Z,17.88
2023-04-21T07:13:18.258Z,15.82
2023-04-21T07:16:11.927Z,22.25
2023-04-21T07:18:57.767Z,20.00
2023-04-21T07:21:43.708Z,26.60
2023-04-21T07:24:29.529Z,24.55
2023-04-21T07:27:15.737Z,17.60
2023-04-21T07:30:01.548Z,22.52
2023-04-21T07:32:47.210Z,15.07
2023-04-21T07:35:33.399Z,17.80
2023-04-21T07:38:19.222Z,26.92
2023-04-21T07:41:05.337Z,22.73
2023-04-21T07:43:53.683Z,27.50
2023-04-21T07:46:39.668Z,11.95
2023-04-21T07:49:25.650Z,16.83
2023-04-21T07:52:11.596Z,16.13
2023-04-21T07:54:57.352Z,14.85
2023-04-21T07:57:43.512Z,16.58
2023-04-21T08:00:29.380Z,19.10
2023-04-21T08:03:15.318Z,17.98
2023-04-21T08:06:02.137Z,20.60
2023-04-21T08:08:48.162Z,17.42
2023-04-21T08:11:33.945Z,10.07
2023-04-21T08:14:20.182Z,11.25
2023-04-21T08:17:06.323Z,13.02
2023-04-21T08:19:52.675Z,12.77
2023-04-21T08:22:38.627Z,11.20
2023-04-21T08:25:24.944Z,17.20
2023-04-21T08:28:11.108Z,19.30
2023-04-21T08:30:57.108Z,27.75
2023-04-21T08:33:54.004Z,16.05
2023-04-21T08:36:45.077Z,17.90
2023-04-21T08:39:30.798Z,11.15
2023-04-21T08:42:18.252Z,19.13
2023-04-21T08:45:06.482Z,15.60
2023-04-21T08:47:52.535Z,9.55
2023-04-21T08:50:38.610Z,13.68
2023-04-21T08:53:24.571Z,20.75
2023-04-21T08:56:11.888Z,13.70
2023-04-21T08:58:57.886Z,18.05
2023-04-21T09:02:18.094Z,18.55
2023-04-21T09:05:05.743Z,15.07
2023-04-21T09:07:53.689Z,13.07
2023-04-21T09:10:47.598Z,14.23
2023-04-21T09:13:35.378Z,8.48
2023-04-21T09:16:22.578Z,11.57
2023-04-21T09:19:18.434Z,17.83
2023-04-21T09:22:04.437Z,16.02
2023-04-21T09:24:58.185Z,17.45
2023-04-21T09:27:44.484Z,10.15
2023-04-21T09:30:30.565Z,11.40
2023-04-21T09:33:27.932Z,22.88
2023-04-21T09:36:21.036Z,8.85
2023-04-21T09:41:57.612Z,21.95
2023-04-21T09:44:52.517Z,12.43
2023-04-21T09:47:43.317Z,21.73
2023-04-21T09:53:21.392Z,24.05
2023-04-21T09:56:17.054Z,14.15
2023-04-21T09:59:07.309Z,15.30
2023-04-21T10:01:54.193Z,17.90
2023-04-21T10:04:43.178Z,13.75
2023-04-21T10:07:29.393Z,16.38
2023-04-21T10:10:28.322Z,8.80
2023-04-21T10:13:16.722Z,8.10
2023-04-21T10:16:07.962Z,12.05
2023-04-21T10:18:54.026Z,9.40
2023-04-21T10:21:39.970Z,12.93
2023-04-21T10:24:29.991Z,14.90
2023-04-21T10:27:39.708Z,13.75
2023-04-21T10:30:29.091Z,11.95
2023-04-21T10:33:18.195Z,7.95
2023-04-21T10:36:05.200Z,15.57
2023-04-21T10:39:00.162Z,10.15
2023-04-21T10:41:50.289Z,10.80
2023-04-21T10:44:36.296Z,14.00
2023-04-21T10:48:26.448Z,14.73
2023-04-21T11:05:02.623Z,7.75
2023-04-21T11:07:48.559Z,9.45
2023-04-21T11:11:44.794Z,7.25
2023-04-21T11:14:31.375Z,8.20
2023-04-21T11:22:12.545Z,11.63
2023-04-21T11:35:24.132Z,6.13
2023-04-21T11:38:10.719Z,16.65
2023-04-21T11:40:56.500Z,8.10
2023-04-21T11:43:46.049Z,13.57
2023-04-21T11:46:33.524Z,10.57
2023-04-21T11:49:19.455Z,12.93
2023-04-21T11:52:05.371Z,15.60
2023-04-21T11:55:18.069Z,15.02
2023-04-21T11:58:04.380Z,19.30
2023-04-21T12:00:51.253Z,5.47
2023-04-21T12:03:37.034Z,26.50
2023-04-21T12:06:25.491Z,8.93
2023-04-21T12:09:21.538Z,7.10
2023-04-21T12:12:17.673Z,8.25
2023-04-21T12:15:04.595Z,5.10
2023-04-21T12:17:54.690Z,7.97
2023-04-21T12:20:49.902Z,8.48
2023-04-21T12:23:35.821Z,14.55
2023-04-21T12:26:23.832Z,12.82
2023-04-21T12:29:09.580Z,6.82
2023-04-21T12:31:55.557Z,6.13
2023-04-21T12:34:41.887Z,9.27
2023-04-21T12:37:28.344Z,8.07
2023-04-21T12:40:14.052Z,6.80
2023-04-21T12:42:59.930Z,11.25
2023-04-21T12:45:49.045Z,8.18
2023-04-21T12:48:35.644Z,11.40
2023-04-21T12:51:21.982Z,8.85
2023-04-21T12:54:07.884Z,14.95
2023-04-21T12:56:54.377Z,13.25
2023-04-21T12:59:40.038Z,13.57
2023-04-21T13:02:25.907Z,10.25
2023-04-21T13:05:12.877Z,8.35
2023-04-21T13:07:58.859Z,10.23
2023-04-21T13:10:45.996Z,10.40
2023-04-21T13:13:32.070Z,17.63
2023-04-21T13:16:18.186Z,13.88
2023-04-21T13:19:04.555Z,11.05
2023-04-21T13:21:52.649Z,13.35
2023-04-21T13:24:39.960Z,12.93
2023-04-21T13:27:26.298Z,13.75
2023-04-21T13:30:13.456Z,9.63
2023-04-21T13:32:59.442Z,7.07
2023-04-21T13:35:45.536Z,8.95
2023-04-21T13:38:32.326Z,9.77
2023-04-21T13:41:18.292Z,12.15
2023-04-21T13:44:04.432Z,9.40
2023-04-21T13:46:52.583Z,6.18
2023-04-21T13:49:39.567Z,15.00
2023-04-21T13:52:26.006Z,7.95
2023-04-21T13:55:12.954Z,7.68
2023-04-21T13:58:01.975Z,10.57
2023-04-21T14:00:48.118Z,9.98
2023-04-21T14:03:34.395Z,8.05
2023-04-21T14:06:20.584Z,12.55
2023-04-21T14:09:06.680Z,19.13
2023-04-21T14:11:52.825Z,9.45
2023-04-21T14:14:39.346Z,9.57
2023-04-21T14:17:25.744Z,16.60
2023-04-21T14:20:11.990Z,7.13
2023-04-21T14:23:01.413Z,17.60
2023-04-21T14:25:48.048Z,15.07
2023-04-21T14:28:34.485Z,13.38
2023-04-21T14:31:22.030Z,7.93
2023-04-21T14:34:08.273Z,23.10
2023-04-21T14:36:54.504Z,8.98
2023-04-21T14:39:40.590Z,14.65
2023-04-21T14:42:26.504Z,6.20
2023-04-21T14:45:12.617Z,8.05
2023-04-21T14:47:59.026Z,13.20
2023-04-21T14:50:45.176Z,9.23
2023-04-21T14:53:31.713Z,10.75
2023-04-21T14:56:17.891Z,8.88
2023-04-21T14:59:04.329Z,19.60
2023-04-21T15:01:50.244Z,10.82
2023-04-21T15:04:36.683Z,25.17
2023-04-21T15:07:24.837Z,10.52
2023-04-21T15:10:11.557Z,15.40
2023-04-21T15:12:57.832Z,9.52
2023-04-21T15:15:44.602Z,10.05
2023-04-21T15:18:30.635Z,15.77
2023-04-21T15:21:16.596Z,12.98
2023-04-21T15:24:02.593Z,9.88
2023-04-21T15:26:48.285Z,5.82
2023-04-21T15:29:34.566Z,13.02
2023-04-21T15:32:21.393Z,5.35
2023-04-21T15:35:07.770Z,10.00
2023-04-21T15:37:54.168Z,15.20
2023-04-21T15:40:53.210Z,13.90
2023-04-21T15:43:48.300Z,9.25
2023-04-21T15:46:36.801Z,8.35
2023-04-21T15:49:31.931Z,12.65
2023-04-21T15:52:17.700Z,9.40
2023-04-21T15:55:03.634Z,13.18
2023-04-21T15:57:49.831Z,15.75
2023-04-21T16:00:41.981Z,6.88
2023-04-21T16:03:28.138Z,11.43
2023-04-21T16:06:14.055Z,22.77
2023-04-21T16:09:00.081Z,6.20
2023-04-21T16:11:46.320Z,12.02
2023-04-21T16:14:46.649Z,7.53
2023-04-21T16:17:38.280Z,11.95
2023-04-21T16:20:24.485Z,19.27
2023-04-21T16:23:10.428Z,9.18
2023-04-21T16:25:56.651Z,13.35
2023-04-21T16:28:42.825Z,17.42
2023-04-21T16:31:28.939Z,13.82
2023-04-21T16:34:16.242Z,13.32
2023-04-21T16:37:02.106Z,14.65
2023-04-21T16:39:48.081Z,65.88
2023-04-21T16:42:34.591Z,28.70
2023-04-21T16:45:20.581Z,55.60
2023-04-21T16:48:07.044Z,28.25
2023-04-21T16:50:54.260Z,17.42
2023-04-21T16:53:42.154Z,15.15
2023-04-21T16:56:28.318Z,10.13
2023-04-21T16:59:14.176Z,15.60
2023-04-21T17:02:00.198Z,21.70
2023-04-21T17:04:46.595Z,12.07
2023-04-21T17:07:32.566Z,12.48
2023-04-21T17:10:18.716Z,19.85
2023-04-21T17:13:06.115Z,13.60
2023-04-21T17:15:52.291Z,15.23
2023-04-21T17:18:38.644Z,12.23
2023-04-21T17:21:28.851Z,13.40
2023-04-21T17:24:21.228Z,14.90
2023-04-21T17:27:07.499Z,16.45
2023-04-21T17:29:54.063Z,10.85
2023-04-21T17:32:43.814Z,16.67
2023-04-21T17:35:29.843Z,13.32
2023-04-21T17:38:15.740Z,10.98
2023-04-21T17:41:02.090Z,16.13
2023-04-21T17:43:48.152Z,8.23
2023-04-21T17:46:34.483Z,15.35
2023-04-21T17:49:23.118Z,18.58
2023-04-21T17:52:09.259Z,17.75
2023-04-21T17:54:54.952Z,15.20
2023-04-21T17:57:40.773Z,17.70
2023-04-21T18:00:28.293Z,16.13
2023-04-21T18:03:14.736Z,17.05
2023-04-21T18:06:01.304Z,15.50
2023-04-21T18:08:47.369Z,15.05
2023-04-21T18:11:33.362Z,19.77
2023-04-21T18:14:19.293Z,17.52
2023-04-21T18:17:06.103Z,12.85
2023-04-21T18:19:52.041Z,16.95
2023-04-21T18:22:38.478Z,13.43
2023-04-21T18:25:40.644Z,15.13
2023-04-21T18:31:15.992Z,15.02
2023-04-21T18:34:02.077Z,16.73
2023-04-21T18:36:49.456Z,11.55
2023-04-21T18:39:35.193Z,20.55
2023-04-21T18:42:21.649Z,21.25
2023-04-21T18:45:10.855Z,12.65
2023-04-21T18:47:57.868Z,21.23
2023-04-21T18:50:43.756Z,17.30
2023-04-21T18:53:30.473Z,21.70
2023-04-21T18:56:16.787Z,15.82
2023-04-21T18:59:02.773Z,17.83
2023-04-21T19:01:49.081Z,19.15
2023-04-21T19:04:36.822Z,59.65
2023-04-21T19:07:28.009Z,32.97
2023-04-21T19:10:13.832Z,15.75
2023-04-21T19:13:01.586Z,19.70
2023-04-21T19:15:50.657Z,20.80
2023-04-21T19:18:36.704Z,25.92
2023-04-21T19:21:23.700Z,15.23
2023-04-21T19:24:09.420Z,20.95
2023-04-21T19:26:55.239Z,25.80
2023-04-21T19:29:41.592Z,20.75
2023-04-21T19:32:27.945Z,22.45
2023-04-21T19:35:14.041Z,20.70
2023-04-21T19:37:59.969Z,23.00
2023-04-21T19:40:45.990Z,29.90
2023-04-21T19:43:31.858Z,17.35
2023-04-21T19:46:17.773Z,24.10
2023-04-21T19:49:03.942Z,18.45
2023-04-21T19:51:51.855Z,14.45
2023-04-21T19:54:38.475Z,18.13
2023-04-21T19:57:25.886Z,17.20
2023-04-21T20:00:12.756Z,16.58
2023-04-21T20:02:59.004Z,15.65
2023-04-21T20:05:45.799Z,13.18
2023-04-21T20:08:31.847Z,15.00
2023-04-21T20:11:17.884Z,20.15
2023-04-21T20:14:04.272Z,22.80
2023-04-21T20:16:50.759Z,17.60
2023-04-21T20:19:40.386Z,15.68
2023-04-21T20:22:26.649Z,14.98
2023-04-21T20:25:13.570Z,14.27
2023-04-21T20:27:59.318Z,17.92
2023-04-21T20:30:45.798Z,23.95
2023-04-21T20:33:31.923Z,26.95
2023-04-21T20:36:18.525Z,20.00
2023-04-21T20:39:06.532Z,14.40
2023-04-21T20:42:04.709Z,16.42
2023-04-21T20:45:02.258Z,20.63
2023-04-21T20:47:48.429Z,13.95
2023-04-21T20:50:34.575Z,19.35
2023-04-21T20:53:21.103Z,16.38
2023-04-21T20:56:07.399Z,21.95
2023-04-21T20:58:53.366Z,23.25
2023-04-21T21:01:41.267Z,16.00
2023-04-21T21:04:27.433Z,22.05
2023-04-21T21:07:14.160Z,16.23
2023-04-21T21:10:00.152Z,32.17
2023-04-21T21:12:46.023Z,19.65
2023-04-21T21:15:31.811Z,21.45
2023-04-21T21:18:17.710Z,25.05
2023-04-21T21:21:06.714Z,29.38
2023-04-21T21:23:52.886Z,28.83
2023-04-21T21:26:42.537Z,27.30
2023-04-21T21:29:29.884Z,18.75
2023-04-21T21:32:16.039Z,23.58
2023-04-21T21:35:02.660Z,17.52
2023-04-21T21:37:48.837Z,18.10
2023-04-21T21:40:35.135Z,18.65
2023-04-21T21:43:21.044Z,18.45
2023-04-21T21:46:07.163Z,24.27
2023-04-21T21:48:54.131Z,21.73
2023-04-21T21:51:40.832Z,19.92
2023-04-21T21:54:28.256Z,36.40
2023-04-21T21:57:14.156Z,28.02
2023-04-21T22:00:02.735Z,20.27
2023-04-21T22:02:51.180Z,15.07
2023-04-21T22:05:38.159Z,15.80
2023-04-21T22:08:24.345Z,20.65
2023-04-21T22:11:10.070Z,21.13
2023-04-21T22:13:57.710Z,19.25
2023-04-21T22:16:46.808Z,21.73
2023-04-21T22:19:34.120Z,24.33
2023-04-21T22:22:20.709Z,22.45
2023-04-21T22:25:07.211Z,27.38
2023-04-21T22:27:57.701Z,20.73
2023-04-21T22:30:43.786Z,16.90
2023-04-21T22:33:29.369Z,27.98
2023-04-21T22:36:15.687Z,19.63
2023-04-21T22:39:01.841Z,19.63
2023-04-21T22:41:47.938Z,18.08
2023-04-21T22:44:34.102Z,18.02
2023-04-21T22:47:20.767Z,20.90
2023-04-21T22:50:07.917Z,22.27
2023-04-21T22:52:53.868Z,17.70
2023-04-21T22:55:40.281Z,20.83
2023-04-21T22:58:26.765Z,18.52
2023-04-21T23:01:12.829Z,19.08
2023-04-21T23:03:59.137Z,31.60
2023-04-21T23:06:45.419Z,24.13
2023-04-21T23:09:31.066Z,22.08
2023-04-21T23:12:16.933Z,21.42
2023-04-21T23:15:02.755Z,28.63
2023-04-21T23:17:49.008Z,15.52
2023-04-21T23:20:35.943Z,21.35
2023-04-21T23:23:21.896Z,21.25
2023-04-21T23:26:07.836Z,17.90
2023-04-21T23:28:53.798Z,18.27
2023-04-21T23:31:39.970Z,19.35
2023-04-21T23:34:25.956Z,16.98
2023-04-21T23:37:12.187Z,14.25
2023-04-21T23:39:58.099Z,12.15
2023-04-21T23:42:47.234Z,16.35
2023-04-21T23:45:34.512Z,13.38
2023-04-21T23:48:20.800Z,29.80
2023-04-21T23:51:07.336Z,13.48
2023-04-21T23:53:53.206Z,21.60
2023-04-21T23:56:39.375Z,21.55
2023-04-21T23:59:25.601Z,15.02
